Time;durP1;ratioP1;P1;durP2;ratioP2;P2;SDS_P1;SDS_P2;PMS_P1;PMS_P2;Temp;Humidity;BMP_temperature;BMP_pressure;BME280_temperature;BME280_humidity;BME280_pressure;Samples;Min_cycle;Max_cycle;Signal;HPM_P1;HPM_P2
2022/03/30 00:01:09;;;;;;;32.33;19.00;;;;;;;;;;4463858;32;20267;-52
2022/03/30 00:03:35;;;;;;;35.73;19.27;;;;;;;;;;4464019;32;20643;-53
2022/03/30 00:06:00;;;;;;;28.87;17.33;;;;;;;;;;4451921;32;20303;-51
2022/03/30 00:08:26;;;;;;;32.77;17.43;;;;;;;;;;4447348;32;20810;-53
2022/03/30 00:10:52;;;;;;;32.00;16.23;;;;;;;;;;4449064;32;20280;-54
2022/03/30 00:13:17;;;;;;;28.10;16.00;;;;;;;;;;4448102;32;20664;-53
2022/03/30 00:15:43;;;;;;;37.13;17.97;;;;;;;;;;4448037;32;20385;-53
2022/03/30 00:18:09;;;;;;;31.67;16.67;;;;;;;;;;4448056;32;20640;-52
2022/03/30 00:20:35;;;;;;;27.40;16.97;;;;;;;;;;4448204;32;20271;-55
2022/03/30 00:23:01;;;;;;;34.00;17.33;;;;;;;;;;4448240;32;20311;-52
2022/03/30 00:25:26;;;;;;;37.23;17.33;;;;;;;;;;4459828;32;20291;-52
2022/03/30 00:27:52;;;;;;;38.40;17.83;;;;;;;;;;4461376;32;20327;-51
2022/03/30 00:30:19;;;;;;;33.80;18.07;;;;;;;;;;4459082;32;20643;-52
2022/03/30 00:32:46;;;;;;;26.60;15.60;;;;;;;;;;4447732;32;20219;-52
2022/03/30 00:35:12;;;;;;;32.20;18.30;;;;;;;;;;4448295;32;20722;-54
2022/03/30 00:37:37;;;;;;;28.30;17.33;;;;;;;;;;4448187;32;20303;-52
2022/03/30 00:40:05;;;;;;;34.90;16.67;;;;;;;;;;4448276;32;20351;-53
2022/03/30 00:42:31;;;;;;;34.90;18.27;;;;;;;;;;4447830;32;20224;-53
2022/03/30 00:44:57;;;;;;;31.60;20.67;;;;;;;;;;4448419;32;20280;-54
2022/03/30 00:47:24;;;;;;;25.93;15.73;;;;;;;;;;4447904;32;20283;-52
2022/03/30 00:49:50;;;;;;;25.90;18.67;;;;;;;;;;4448067;32;20514;-51
2022/03/30 00:52:17;;;;;;;28.10;16.67;;;;;;;;;;4447944;32;20259;-52
2022/03/30 00:54:45;;;;;;;30.67;15.77;;;;;;;;;;4448117;32;20228;-51
2022/03/30 00:57:12;;;;;;;26.73;15.07;;;;;;;;;;4447411;32;20327;-51
2022/03/30 00:59:39;;;;;;;32.63;16.43;;;;;;;;;;4447668;32;20213;-52
2022/03/30 01:02:05;;;;;;;24.67;14.23;;;;;;;;;;4447628;32;20583;-52
2022/03/30 01:04:34;;;;;;;23.53;16.00;;;;;;;;;;4449937;32;20450;-54
2022/03/30 01:07:00;;;;;;;32.53;14.23;;;;;;;;;;4451318;32;20284;-52
2022/03/30 01:09:25;;;;;;;25.70;15.00;;;;;;;;;;4454842;32;20275;-52
2022/03/30 01:11:54;;;;;;;25.93;14.33;;;;;;;;;;4466113;32;20270;-52
2022/03/30 01:14:21;;;;;;;27.47;13.47;;;;;;;;;;4466627;32;20471;-52
2022/03/30 01:16:47;;;;;;;26.37;14.57;;;;;;;;;;4465975;32;20263;-51
2022/03/30 01:19:12;;;;;;;28.47;14.90;;;;;;;;;;4466321;32;20300;-52
2022/03/30 01:21:40;;;;;;;28.00;15.93;;;;;;;;;;4466066;32;20204;-52
2022/03/30 01:24:11;;;;;;;40.03;17.83;;;;;;;;;;4465183;32;20285;-52
2022/03/30 01:26:37;;;;;;;25.30;15.67;;;;;;;;;;4466046;32;20695;-54
2022/03/30 01:32:25;;;;;;;33.93;16.60;;;;;;;;;;4454691;32;20276;-51
2022/03/30 01:34:35;;;;;;;32.47;16.00;;;;;;;;;;4465948;32;20271;-52
2022/03/30 01:37:05;;;;;;;27.37;15.97;;;;;;;;;;4465701;32;20321;-52
2022/03/30 01:39:31;;;;;;;35.60;18.33;;;;;;;;;;4465614;32;20315;-53
2022/03/30 01:41:56;;;;;;;44.70;21.07;;;;;;;;;;4465274;32;20250;-52
2022/03/30 01:44:22;;;;;;;39.13;19.83;;;;;;;;;;4466078;32;20231;-52
2022/03/30 01:46:47;;;;;;;32.27;18.83;;;;;;;;;;4465449;32;20196;-52
2022/03/30 01:49:13;;;;;;;31.03;17.80;;;;;;;;;;4465903;32;20684;-51
2022/03/30 01:51:38;;;;;;;26.97;17.37;;;;;;;;;;4466016;32;20227;-52
2022/03/30 01:54:04;;;;;;;34.30;18.87;;;;;;;;;;4465731;32;20283;-51
2022/03/30 01:56:30;;;;;;;36.70;19.87;;;;;;;;;;4465692;32;20204;-50
2022/03/30 01:58:56;;;;;;;38.87;21.60;;;;;;;;;;4451575;32;20672;-52
2022/03/30 02:01:21;;;;;;;42.10;19.23;;;;;;;;;;4449975;32;20208;-52
2022/03/30 02:03:47;;;;;;;30.77;18.73;;;;;;;;;;4448277;32;20292;-52
2022/03/30 02:06:14;;;;;;;38.63;20.63;;;;;;;;;;4449533;32;20284;-51
2022/03/30 02:08:39;;;;;;;30.30;17.53;;;;;;;;;;4449919;32;20303;-51
2022/03/30 02:11:05;;;;;;;32.73;17.60;;;;;;;;;;4464291;32;20274;-52
2022/03/30 02:13:30;;;;;;;29.47;17.37;;;;;;;;;;4465731;32;20322;-51
2022/03/30 02:15:56;;;;;;;32.63;18.23;;;;;;;;;;4465053;32;20268;-52
2022/03/30 02:18:21;;;;;;;27.57;18.30;;;;;;;;;;4450037;32;20250;-52
2022/03/30 02:20:47;;;;;;;29.30;17.00;;;;;;;;;;4449660;32;20323;-51
2022/03/30 02:23:12;;;;;;;36.10;19.50;;;;;;;;;;4449995;32;20240;-51
2022/03/30 02:25:38;;;;;;;36.50;19.17;;;;;;;;;;4449495;32;20369;-52
2022/03/30 02:28:03;;;;;;;32.80;17.63;;;;;;;;;;4452288;32;20291;-51
2022/03/30 02:30:30;;;;;;;36.97;18.30;;;;;;;;;;4458912;32;20279;-54
2022/03/30 02:32:57;;;;;;;40.10;19.03;;;;;;;;;;4449448;32;20328;-51
2022/03/30 02:35:23;;;;;;;25.73;18.40;;;;;;;;;;4449786;32;20204;-52
2022/03/30 02:37:49;;;;;;;30.23;17.63;;;;;;;;;;4449649;32;20355;-55
2022/03/30 02:40:15;;;;;;;35.50;20.47;;;;;;;;;;4449358;32;20302;-55
2022/03/30 02:42:40;;;;;;;49.53;24.63;;;;;;;;;;4449026;32;20313;-52
2022/03/30 02:45:06;;;;;;;44.43;22.33;;;;;;;;;;4449353;32;20437;-54
2022/03/30 02:50:16;;;;;;;44.27;21.93;;;;;;;;;;4449194;32;20211;-53
2022/03/30 02:52:42;;;;;;;41.90;23.00;;;;;;;;;;4449280;32;20248;-52
2022/03/30 02:55:07;;;;;;;45.27;22.30;;;;;;;;;;4447734;32;20307;-53
2022/03/30 02:57:33;;;;;;;43.77;21.67;;;;;;;;;;4449160;32;20296;-53
2022/03/30 02:59:58;;;;;;;42.07;20.27;;;;;;;;;;4448671;32;20371;-52
2022/03/30 03:02:24;;;;;;;46.30;19.37;;;;;;;;;;4453215;32;20321;-53
2022/03/30 03:04:49;;;;;;;33.93;19.67;;;;;;;;;;4460400;32;20300;-53
2022/03/30 03:07:16;;;;;;;35.40;19.93;;;;;;;;;;4448627;32;20704;-54
2022/03/30 03:09:41;;;;;;;37.10;19.30;;;;;;;;;;4449121;32;20305;-54
2022/03/30 03:12:07;;;;;;;33.30;18.27;;;;;;;;;;4448834;32;20252;-53
2022/03/30 03:14:33;;;;;;;40.70;17.67;;;;;;;;;;4448685;32;20295;-54
2022/03/30 03:16:58;;;;;;;32.53;17.90;;;;;;;;;;4448678;32;20315;-53
2022/03/30 03:19:24;;;;;;;32.90;16.90;;;;;;;;;;4457135;32;20274;-53
2022/03/30 03:21:50;;;;;;;35.40;18.97;;;;;;;;;;4447647;32;20249;-54
2022/03/30 03:24:15;;;;;;;26.87;15.70;;;;;;;;;;4447946;32;20266;-52
2022/03/30 03:26:41;;;;;;;28.73;16.67;;;;;;;;;;4448508;32;20288;-52
2022/03/30 03:29:06;;;;;;;43.70;21.47;;;;;;;;;;4458083;32;20241;-54
2022/03/30 03:31:31;;;;;;;43.67;24.27;;;;;;;;;;4450396;32;20637;-55
2022/03/30 03:33:57;;;;;;;44.50;24.13;;;;;;;;;;4449183;32;20700;-52
2022/03/30 03:36:23;;;;;;;39.37;21.67;;;;;;;;;;4447446;32;20337;-53
2022/03/30 03:38:49;;;;;;;40.87;21.50;;;;;;;;;;4448550;32;20334;-52
2022/03/30 03:41:14;;;;;;;56.60;23.90;;;;;;;;;;4448383;32;20302;-52
2022/03/30 03:43:40;;;;;;;43.77;22.83;;;;;;;;;;4448779;32;20278;-52
2022/03/30 03:46:06;;;;;;;58.40;26.93;;;;;;;;;;4448488;32;20276;-53
2022/03/30 03:48:31;;;;;;;51.20;27.57;;;;;;;;;;4448526;32;20236;-52
2022/03/30 03:50:57;;;;;;;69.17;30.67;;;;;;;;;;4447213;32;20378;-53
2022/03/30 03:53:22;;;;;;;83.80;36.47;;;;;;;;;;4448729;32;20278;-54
2022/03/30 03:55:48;;;;;;;71.50;33.90;;;;;;;;;;4448614;32;20446;-53
2022/03/30 03:58:13;;;;;;;59.97;31.10;;;;;;;;;;4457904;32;20247;-53
2022/03/30 04:00:39;;;;;;;63.50;32.80;;;;;;;;;;4462417;32;20514;-54
2022/03/30 04:03:04;;;;;;;68.13;32.83;;;;;;;;;;4463788;32;20675;-52
2022/03/30 04:05:30;;;;;;;50.60;29.50;;;;;;;;;;4455134;32;20291;-53
2022/03/30 04:07:56;;;;;;;52.93;29.43;;;;;;;;;;4448434;32;20232;-53
2022/03/30 04:10:21;;;;;;;48.77;29.20;;;;;;;;;;4457900;32;20290;-54
2022/03/30 04:12:47;;;;;;;62.30;33.20;;;;;;;;;;4463758;32;20288;-51
2022/03/30 04:15:12;;;;;;;67.47;33.37;;;;;;;;;;4464037;32;20381;-53
2022/03/30 04:17:43;;;;;;;63.50;29.43;;;;;;;;;;4463657;32;20232;-53
2022/03/30 04:20:10;;;;;;;59.20;30.93;;;;;;;;;;4463707;32;20557;-53
2022/03/30 04:22:35;;;;;;;60.47;31.90;;;;;;;;;;4463720;32;20250;-52
2022/03/30 04:25:00;;;;;;;60.90;31.23;;;;;;;;;;4463424;32;20279;-52
2022/03/30 04:27:26;;;;;;;62.07;33.27;;;;;;;;;;4462466;32;20267;-53
2022/03/30 04:29:51;;;;;;;47.30;27.43;;;;;;;;;;4460393;32;20346;-53
2022/03/30 04:32:17;;;;;;;71.23;34.60;;;;;;;;;;4447598;32;20231;-53
2022/03/30 04:34:42;;;;;;;46.20;27.87;;;;;;;;;;4446647;32;20368;-54
2022/03/30 04:37:08;;;;;;;49.97;24.30;;;;;;;;;;4447857;32;20212;-52
2022/03/30 04:39:33;;;;;;;51.43;26.83;;;;;;;;;;4447408;32;20872;-53
2022/03/30 04:41:59;;;;;;;48.07;28.07;;;;;;;;;;4448862;32;20575;-52
2022/03/30 04:44:25;;;;;;;50.20;24.03;;;;;;;;;;4450991;32;20247;-53
2022/03/30 04:46:51;;;;;;;47.50;24.23;;;;;;;;;;4450307;32;20329;-53
2022/03/30 04:49:17;;;;;;;44.87;23.63;;;;;;;;;;4451051;32;20267;-52
2022/03/30 04:51:42;;;;;;;40.77;24.63;;;;;;;;;;4450555;32;20352;-54
2022/03/30 04:54:08;;;;;;;46.80;24.97;;;;;;;;;;4450255;32;20294;-53
2022/03/30 04:56:33;;;;;;;55.90;26.53;;;;;;;;;;4450726;32;20212;-54
2022/03/30 04:58:59;;;;;;;52.73;28.47;;;;;;;;;;4449380;32;20236;-52
2022/03/30 05:01:24;;;;;;;45.03;27.10;;;;;;;;;;4450692;32;20285;-51
2022/03/30 05:03:50;;;;;;;51.57;27.33;;;;;;;;;;4450632;32;20216;-53
2022/03/30 05:06:15;;;;;;;55.77;28.10;;;;;;;;;;4454447;32;20433;-53
2022/03/30 05:08:41;;;;;;;60.77;29.87;;;;;;;;;;4450258;32;20616;-51
2022/03/30 05:11:06;;;;;;;50.03;32.90;;;;;;;;;;4465223;32;20333;-52
2022/03/30 05:13:31;;;;;;;64.17;34.00;;;;;;;;;;4466327;32;20319;-53
2022/03/30 05:15:57;;;;;;;55.30;34.23;;;;;;;;;;4465706;32;20274;-52
2022/03/30 05:18:22;;;;;;;76.67;37.87;;;;;;;;;;4465599;32;20240;-53
2022/03/30 05:20:48;;;;;;;72.20;39.47;;;;;;;;;;4465488;32;20362;-52
2022/03/30 05:23:13;;;;;;;67.00;37.23;;;;;;;;;;4465631;32;20291;-52
2022/03/30 05:25:39;;;;;;;63.70;37.90;;;;;;;;;;4465656;32;20267;-53
2022/03/30 05:28:05;;;;;;;81.67;41.83;;;;;;;;;;4463361;32;20291;-55
2022/03/30 05:30:30;;;;;;;87.67;40.80;;;;;;;;;;4458295;32;20345;-54
2022/03/30 05:32:55;;;;;;;73.50;39.87;;;;;;;;;;4449841;32;20704;-54
2022/03/30 05:35:21;;;;;;;73.77;40.20;;;;;;;;;;4450000;32;20648;-52
2022/03/30 05:37:48;;;;;;;77.90;40.30;;;;;;;;;;4448394;32;20228;-53
2022/03/30 05:40:15;;;;;;;80.20;41.00;;;;;;;;;;4448769;32;20225;-53
2022/03/30 05:42:41;;;;;;;68.00;38.17;;;;;;;;;;4449216;32;20303;-53
2022/03/30 05:45:07;;;;;;;66.87;38.73;;;;;;;;;;4449098;32;20713;-55
2022/03/30 05:47:33;;;;;;;82.77;38.93;;;;;;;;;;4448417;32;20329;-53
2022/03/30 05:49:59;;;;;;;62.90;36.80;;;;;;;;;;4448507;32;20235;-52
2022/03/30 05:52:24;;;;;;;69.67;38.17;;;;;;;;;;4447663;32;20670;-54
2022/03/30 05:54:50;;;;;;;72.23;37.40;;;;;;;;;;4446470;32;20655;-54
2022/03/30 05:57:16;;;;;;;64.73;36.70;;;;;;;;;;4447383;32;20699;-52
2022/03/30 05:59:43;;;;;;;67.37;35.03;;;;;;;;;;4447755;32;20310;-53
2022/03/30 06:02:11;;;;;;;75.13;39.80;;;;;;;;;;4447618;32;20200;-53
2022/03/30 06:04:38;;;;;;;61.17;35.67;;;;;;;;;;4450056;32;20279;-52
2022/03/30 06:07:04;;;;;;;51.60;27.43;;;;;;;;;;4448497;32;20634;-52
2022/03/30 06:09:33;;;;;;;54.77;32.17;;;;;;;;;;4446403;32;20327;-53
2022/03/30 06:11:59;;;;;;;55.77;33.20;;;;;;;;;;4446904;32;20201;-52
2022/03/30 06:14:25;;;;;;;60.57;34.20;;;;;;;;;;4447851;32;20216;-52
2022/03/30 06:16:50;;;;;;;56.23;35.80;;;;;;;;;;4448463;32;20686;-55
2022/03/30 06:19:16;;;;;;;61.57;34.40;;;;;;;;;;4447689;32;20244;-53
2022/03/30 06:21:42;;;;;;;68.60;37.23;;;;;;;;;;4448973;32;20240;-53
2022/03/30 06:24:12;;;;;;;65.03;36.40;;;;;;;;;;4447356;32;20231;-53
2022/03/30 06:26:38;;;;;;;51.90;33.07;;;;;;;;;;4447762;32;20260;-53
2022/03/30 06:29:04;;;;;;;56.50;33.37;;;;;;;;;;4457971;32;20250;-53
2022/03/30 06:31:31;;;;;;;63.10;34.87;;;;;;;;;;4452131;32;20221;-52
2022/03/30 06:33:57;;;;;;;59.13;35.30;;;;;;;;;;4448163;32;20236;-54
2022/03/30 06:36:23;;;;;;;66.20;34.53;;;;;;;;;;4449328;32;20265;-53
2022/03/30 06:38:50;;;;;;;61.87;32.50;;;;;;;;;;4448411;32;20287;-54
2022/03/30 06:41:17;;;;;;;55.80;32.40;;;;;;;;;;4454490;32;20310;-53
2022/03/30 06:43:46;;;;;;;54.00;30.70;;;;;;;;;;4449786;32;20433;-52
2022/03/30 06:46:14;;;;;;;51.23;31.80;;;;;;;;;;4449207;32;20298;-55
2022/03/30 06:48:41;;;;;;;60.77;33.87;;;;;;;;;;4449260;32;20233;-53
2022/03/30 06:51:07;;;;;;;59.23;30.63;;;;;;;;;;4448895;32;20220;-55
2022/03/30 06:53:33;;;;;;;54.20;27.70;;;;;;;;;;4448957;32;20385;-54
2022/03/30 06:55:58;;;;;;;37.43;26.03;;;;;;;;;;4448838;32;20272;-53
2022/03/30 06:58:24;;;;;;;45.77;25.63;;;;;;;;;;4450115;32;20220;-53
2022/03/30 07:00:51;;;;;;;48.13;23.73;;;;;;;;;;4449006;32;20271;-53
2022/03/30 07:03:17;;;;;;;40.67;21.87;;;;;;;;;;4448950;32;20613;-53
2022/03/30 07:05:42;;;;;;;32.47;20.50;;;;;;;;;;4453446;32;20267;-53
2022/03/30 07:10:52;;;;;;;48.03;21.27;;;;;;;;;;4448332;32;20249;-53
2022/03/30 07:13:19;;;;;;;31.47;19.00;;;;;;;;;;4448478;32;20236;-51
2022/03/30 07:15:45;;;;;;;35.90;19.27;;;;;;;;;;4462674;32;20571;-53
2022/03/30 07:18:10;;;;;;;42.13;21.27;;;;;;;;;;4462110;32;20402;-51
2022/03/30 07:20:37;;;;;;;39.10;21.47;;;;;;;;;;4460591;32;20303;-54
2022/03/30 07:23:02;;;;;;;32.00;19.90;;;;;;;;;;4462393;32;20239;-52
2022/03/30 07:25:30;;;;;;;36.43;20.00;;;;;;;;;;4462309;32;20282;-53
2022/03/30 07:28:02;;;;;;;36.00;22.70;;;;;;;;;;4453902;32;20469;-56
2022/03/30 07:30:28;;;;;;;38.43;22.60;;;;;;;;;;4446527;32;20237;-54
2022/03/30 07:32:55;;;;;;;38.77;22.23;;;;;;;;;;4446234;32;20258;-55
2022/03/30 07:35:22;;;;;;;27.00;19.30;;;;;;;;;;4445627;32;20308;-53
2022/03/30 07:37:49;;;;;;;30.50;18.80;;;;;;;;;;4447539;32;20237;-52
2022/03/30 07:40:17;;;;;;;36.77;20.57;;;;;;;;;;4446582;32;20773;-53
2022/03/30 07:42:43;;;;;;;30.57;18.17;;;;;;;;;;4448334;32;20236;-53
2022/03/30 07:45:10;;;;;;;27.67;17.50;;;;;;;;;;4447958;32;20246;-54
2022/03/30 07:47:36;;;;;;;27.53;16.50;;;;;;;;;;4447960;32;20239;-55
2022/03/30 07:50:03;;;;;;;28.17;16.20;;;;;;;;;;4448346;32;20778;-53
2022/03/30 07:52:29;;;;;;;27.93;16.47;;;;;;;;;;4448255;32;20816;-52
2022/03/30 07:54:55;;;;;;;28.67;14.60;;;;;;;;;;4456281;32;20292;-52
2022/03/30 07:57:26;;;;;;;23.50;14.87;;;;;;;;;;4459558;32;20584;-52
2022/03/30 07:59:59;;;;;;;24.33;15.17;;;;;;;;;;4447548;32;20264;-53
2022/03/30 08:02:27;;;;;;;36.07;17.43;;;;;;;;;;4447527;32;20216;-53
2022/03/30 08:04:54;;;;;;;31.33;13.67;;;;;;;;;;4447655;32;20269;-52
2022/03/30 08:07:19;;;;;;;27.50;13.27;;;;;;;;;;4446675;32;20247;-53
2022/03/30 08:09:45;;;;;;;23.30;12.20;;;;;;;;;;4447529;32;20299;-54
2022/03/30 08:12:11;;;;;;;29.80;14.73;;;;;;;;;;4446937;32;20336;-54
2022/03/30 08:14:37;;;;;;;25.17;13.73;;;;;;;;;;4446571;32;20396;-53
2022/03/30 08:17:03;;;;;;;27.57;12.70;;;;;;;;;;4447293;32;20280;-56
2022/03/30 08:19:28;;;;;;;21.83;12.60;;;;;;;;;;4447446;32;20319;-53
2022/03/30 08:24:39;;;;;;;21.57;12.37;;;;;;;;;;4446311;32;20255;-52
2022/03/30 08:27:05;;;;;;;19.23;12.97;;;;;;;;;;4445247;32;20402;-53
2022/03/30 08:29:30;;;;;;;26.27;14.10;;;;;;;;;;4459398;32;20666;-54
2022/03/30 08:31:56;;;;;;;27.50;12.40;;;;;;;;;;4447066;32;20573;-54
2022/03/30 08:34:21;;;;;;;28.40;13.47;;;;;;;;;;4447356;32;20299;-52
2022/03/30 08:36:46;;;;;;;26.03;13.97;;;;;;;;;;4447227;32;20325;-53
2022/03/30 08:39:12;;;;;;;26.43;14.60;;;;;;;;;;4447553;32;20326;-53
2022/03/30 08:41:45;;;;;;;19.03;12.60;;;;;;;;;;4447445;32;20217;-54
2022/03/30 08:44:16;;;;;;;31.60;12.83;;;;;;;;;;4446755;32;20337;-53
2022/03/30 08:46:45;;;;;;;20.63;11.83;;;;;;;;;;4447955;32;20308;-53
2022/03/30 08:49:10;;;;;;;28.77;12.63;;;;;;;;;;4447776;32;20240;-53
2022/03/30 08:51:39;;;;;;;23.77;12.87;;;;;;;;;;4459085;32;20343;-54
2022/03/30 08:54:09;;;;;;;20.77;9.80;;;;;;;;;;4463354;32;20288;-52
2022/03/30 08:56:36;;;;;;;26.00;11.83;;;;;;;;;;4463036;32;20316;-53
2022/03/30 08:59:04;;;;;;;23.03;11.00;;;;;;;;;;4447543;32;20819;-54
2022/03/30 09:01:34;;;;;;;15.50;9.70;;;;;;;;;;4447209;32;20268;-53
2022/03/30 09:04:02;;;;;;;23.60;11.10;;;;;;;;;;4447505;32;20743;-53
2022/03/30 09:06:39;;;;;;;27.70;11.77;;;;;;;;;;4451857;32;20547;-52
2022/03/30 09:09:06;;;;;;;20.93;12.43;;;;;;;;;;4447419;32;20251;-52
2022/03/30 09:11:37;;;;;;;20.60;12.10;;;;;;;;;;4447347;32;20313;-52
2022/03/30 09:14:04;;;;;;;19.73;11.03;;;;;;;;;;4447298;32;20267;-52
2022/03/30 09:16:47;;;;;;;29.37;12.80;;;;;;;;;;4447550;32;20231;-52
2022/03/30 09:19:15;;;;;;;17.90;10.53;;;;;;;;;;4446282;32;20228;-54
2022/03/30 09:21:56;;;;;;;22.93;12.00;;;;;;;;;;4447370;32;20220;-53
2022/03/30 09:24:28;;;;;;;22.77;11.77;;;;;;;;;;4447292;32;20221;-53
2022/03/30 09:26:55;;;;;;;32.80;11.50;;;;;;;;;;4447382;32;20248;-52
2022/03/30 09:29:23;;;;;;;19.43;10.53;;;;;;;;;;4448554;32;20359;-52
2022/03/30 09:31:52;;;;;;;18.33;9.83;;;;;;;;;;4448554;32;20208;-53
2022/03/30 09:34:19;;;;;;;22.20;9.70;;;;;;;;;;4450052;32;20233;-52
2022/03/30 09:36:45;;;;;;;25.20;10.43;;;;;;;;;;4449905;32;20236;-53
2022/03/30 09:39:35;;;;;;;31.13;9.77;;;;;;;;;;4450609;32;20434;-54
2022/03/30 09:42:03;;;;;;;20.20;11.73;;;;;;;;;;4450422;32;20441;-52
2022/03/30 09:44:30;;;;;;;26.10;10.03;;;;;;;;;;4450376;32;20772;-52
2022/03/30 09:46:58;;;;;;;29.07;12.30;;;;;;;;;;4449917;32;20745;-53
2022/03/30 09:49:35;;;;;;;19.23;10.93;;;;;;;;;;4461109;32;20233;-53
2022/03/30 09:52:00;;;;;;;22.27;11.77;;;;;;;;;;4465157;32;20603;-54
2022/03/30 09:54:57;;;;;;;20.00;10.53;;;;;;;;;;4465610;32;20280;-54
2022/03/30 09:57:26;;;;;;;27.57;11.80;;;;;;;;;;4448450;32;20231;-53
2022/03/30 09:59:55;;;;;;;23.07;11.20;;;;;;;;;;4449424;32;20205;-54
2022/03/30 10:02:21;;;;;;;23.10;9.83;;;;;;;;;;4449995;32;20238;-54
2022/03/30 10:04:47;;;;;;;23.70;8.60;;;;;;;;;;4453735;32;20279;-56
2022/03/30 10:07:13;;;;;;;29.17;9.90;;;;;;;;;;4450099;32;20714;-54
2022/03/30 10:09:40;;;;;;;21.93;9.53;;;;;;;;;;4448609;32;20333;-54
2022/03/30 10:12:07;;;;;;;21.93;9.30;;;;;;;;;;4449653;32;20208;-54
2022/03/30 10:14:34;;;;;;;26.33;8.37;;;;;;;;;;4449730;32;20767;-55
2022/03/30 10:17:00;;;;;;;18.00;8.97;;;;;;;;;;4449466;32;20212;-53
2022/03/30 10:19:25;;;;;;;17.90;8.47;;;;;;;;;;4448899;32;20547;-53
2022/03/30 10:22:12;;;;;;;17.60;8.40;;;;;;;;;;4448182;32;20302;-52
2022/03/30 10:25:16;;;;;;;27.67;8.73;;;;;;;;;;4449868;32;20193;-52
2022/03/30 10:28:19;;;;;;;18.67;8.87;;;;;;;;;;4445732;32;20259;-52
2022/03/30 10:30:50;;;;;;;20.17;8.40;;;;;;;;;;4449354;32;20208;-53
2022/03/30 10:33:29;;;;;;;23.27;8.57;;;;;;;;;;4449098;32;20655;-52
2022/03/30 10:35:56;;;;;;;24.57;8.83;;;;;;;;;;4449021;32;20208;-54
2022/03/30 10:38:22;;;;;;;32.40;7.73;;;;;;;;;;4448867;32;20422;-54
2022/03/30 10:40:48;;;;;;;19.80;6.97;;;;;;;;;;4447915;32;20827;-54
2022/03/30 10:43:25;;;;;;;25.27;8.00;;;;;;;;;;4454233;32;20220;-51
2022/03/30 10:45:57;;;;;;;14.93;6.43;;;;;;;;;;4464814;32;20215;-52
2022/03/30 10:48:28;;;;;;;27.25;7.93;;;;;;;;;;4449262;32;20236;-51
2022/03/30 10:50:54;;;;;;;17.77;8.70;;;;;;;;;;4448553;32;20232;-52
2022/03/30 10:53:34;;;;;;;18.98;7.65;;;;;;;;;;4448770;32;20273;-53
2022/03/30 10:56:09;;;;;;;15.30;7.53;;;;;;;;;;4447400;32;20655;-51
2022/03/30 10:59:00;;;;;;;19.53;8.13;;;;;;;;;;4447239;32;20521;-51
2022/03/30 11:01:32;;;;;;;35.10;8.82;;;;;;;;;;4440154;32;20270;-53
2022/03/30 11:04:11;;;;;;;28.27;7.33;;;;;;;;;;4448899;32;20707;-53
2022/03/30 11:06:39;;;;;;;18.00;4.53;;;;;;;;;;4459463;32;20703;-52
2022/03/30 11:09:07;;;;;;;31.27;6.87;;;;;;;;;;4464188;32;20242;-52
2022/03/30 11:11:42;;;;;;;17.83;6.12;;;;;;;;;;4464026;32;20268;-52
2022/03/30 11:14:28;;;;;;;21.07;6.80;;;;;;;;;;4453908;32;20246;-52
2022/03/30 11:16:54;;;;;;;60.83;6.87;;;;;;;;;;4448751;32;20193;-52
2022/03/30 11:19:28;;;;;;;22.50;6.00;;;;;;;;;;4448424;32;20236;-53
2022/03/30 11:22:10;;;;;;;43.57;5.63;;;;;;;;;;4448141;32;20256;-52
2022/03/30 11:24:36;;;;;;;23.87;5.32;;;;;;;;;;4447266;32;20252;-52
2022/03/30 11:27:02;;;;;;;19.35;5.60;;;;;;;;;;4448783;32;20226;-52
2022/03/30 11:32:24;;;;;;;35.78;6.62;;;;;;;;;;4464030;32;20615;-52
2022/03/30 11:35:00;;;;;;;18.93;3.77;;;;;;;;;;4464575;32;20263;-53
2022/03/30 11:37:27;;;;;;;22.30;5.27;;;;;;;;;;4464174;32;20230;-53
2022/03/30 11:40:10;;;;;;;25.62;5.12;;;;;;;;;;4455721;32;20675;-53
2022/03/30 11:42:38;;;;;;;40.97;6.40;;;;;;;;;;4448424;32;20628;-54
2022/03/30 11:45:14;;;;;;;35.53;5.57;;;;;;;;;;4448463;32;20604;-54
2022/03/30 11:47:52;;;;;;;27.87;5.53;;;;;;;;;;4458374;32;20254;-54
2022/03/30 11:50:40;;;;;;;28.05;4.97;;;;;;;;;;4448539;32;20231;-54
2022/03/30 11:53:19;;;;;;;25.25;5.93;;;;;;;;;;4447796;32;20220;-53
2022/03/30 11:56:00;;;;;;;31.50;4.82;;;;;;;;;;4448564;32;20256;-54
2022/03/30 11:58:36;;;;;;;21.85;4.97;;;;;;;;;;4447875;32;20676;-54
2022/03/30 12:01:07;;;;;;;18.35;4.05;;;;;;;;;;4448241;32;20317;-53
2022/03/30 12:03:34;;;;;;;31.87;4.28;;;;;;;;;;4447166;32;20232;-54
2022/03/30 12:06:03;;;;;;;22.20;5.75;;;;;;;;;;4452472;32;20303;-52
2022/03/30 12:08:38;;;;;;;22.77;3.85;;;;;;;;;;4448338;32;20592;-52
2022/03/30 12:11:04;;;;;;;38.40;6.35;;;;;;;;;;4462549;32;20739;-52
2022/03/30 12:13:30;;;;;;;30.52;5.85;;;;;;;;;;4463778;32;20296;-54
2022/03/30 12:16:03;;;;;;;23.27;5.37;;;;;;;;;;4463323;32;20283;-53
2022/03/30 12:18:30;;;;;;;30.95;5.40;;;;;;;;;;4462688;32;20329;-54
2022/03/30 12:20:59;;;;;;;27.55;4.70;;;;;;;;;;4447960;32;20231;-54
2022/03/30 12:23:25;;;;;;;18.30;4.45;;;;;;;;;;4448125;32;20577;-52
2022/03/30 12:25:50;;;;;;;24.40;4.37;;;;;;;;;;4448467;32;20282;-52
2022/03/30 12:28:28;;;;;;;27.90;4.75;;;;;;;;;;4447938;32;20228;-53
2022/03/30 12:30:53;;;;;;;26.62;4.62;;;;;;;;;;4448349;32;20249;-53
2022/03/30 12:33:19;;;;;;;21.17;4.75;;;;;;;;;;4448390;32;20556;-52
2022/03/30 12:35:44;;;;;;;36.50;6.22;;;;;;;;;;4446785;32;20668;-52
2022/03/30 12:38:12;;;;;;;13.55;3.97;;;;;;;;;;4448282;32;20224;-52
2022/03/30 12:40:42;;;;;;;23.83;4.72;;;;;;;;;;4448379;32;20516;-53
2022/03/30 12:43:09;;;;;;;23.10;4.15;;;;;;;;;;4448188;32;20281;-54
2022/03/30 12:45:46;;;;;;;12.43;4.07;;;;;;;;;;4447918;32;20263;-53
2022/03/30 12:48:11;;;;;;;38.03;5.95;;;;;;;;;;4450792;32;20344;-54
2022/03/30 12:50:37;;;;;;;27.85;4.18;;;;;;;;;;4461750;32;20302;-53
2022/03/30 12:53:16;;;;;;;21.65;4.50;;;;;;;;;;4461389;32;20668;-54
2022/03/30 12:55:46;;;;;;;23.95;4.12;;;;;;;;;;4461335;32;20656;-53
2022/03/30 12:58:18;;;;;;;31.48;6.00;;;;;;;;;;4451334;32;20748;-52
2022/03/30 13:00:46;;;;;;;21.05;4.78;;;;;;;;;;4447014;32;20189;-54
2022/03/30 13:03:33;;;;;;;14.98;3.80;;;;;;;;;;4449078;32;20299;-53
2022/03/30 13:06:06;;;;;;;19.15;4.32;;;;;;;;;;4455683;32;20208;-53
2022/03/30 13:08:31;;;;;;;19.75;5.95;;;;;;;;;;4450897;32;20746;-54
2022/03/30 13:11:02;;;;;;;28.55;4.60;;;;;;;;;;4451293;32;20272;-52
2022/03/30 13:13:33;;;;;;;20.07;4.50;;;;;;;;;;4450894;32;20652;-54
2022/03/30 13:16:07;;;;;;;17.85;4.68;;;;;;;;;;4450556;32;20263;-55
2022/03/30 13:18:33;;;;;;;15.75;4.10;;;;;;;;;;4449392;32;20231;-53
2022/03/30 13:21:01;;;;;;;21.12;5.72;;;;;;;;;;4450715;32;20205;-53
2022/03/30 13:23:37;;;;;;;18.90;4.35;;;;;;;;;;4450357;32;20225;-53
2022/03/30 13:26:04;;;;;;;32.13;5.53;;;;;;;;;;4450599;32;20208;-53
2022/03/30 13:28:30;;;;;;;29.30;5.82;;;;;;;;;;4450058;32;20232;-54
2022/03/30 13:30:56;;;;;;;16.52;5.28;;;;;;;;;;4449184;32;20363;-53
2022/03/30 13:33:22;;;;;;;20.48;4.95;;;;;;;;;;4450166;32;20309;-53
2022/03/30 13:35:48;;;;;;;22.08;6.65;;;;;;;;;;4450552;32;20318;-53
2022/03/30 13:38:18;;;;;;;24.17;4.62;;;;;;;;;;4450279;32;20255;-55
2022/03/30 13:40:45;;;;;;;28.00;6.45;;;;;;;;;;4450388;32;20422;-53
2022/03/30 13:43:10;;;;;;;25.08;4.37;;;;;;;;;;4449799;32;20651;-52
2022/03/30 13:45:36;;;;;;;18.10;5.10;;;;;;;;;;4450098;32;20279;-53
2022/03/30 13:48:02;;;;;;;19.55;5.20;;;;;;;;;;4459376;32;20369;-52
2022/03/30 13:50:28;;;;;;;27.33;5.57;;;;;;;;;;4448578;32;20327;-54
2022/03/30 13:52:54;;;;;;;27.58;6.43;;;;;;;;;;4449320;32;20357;-54
2022/03/30 13:55:22;;;;;;;19.75;5.55;;;;;;;;;;4450295;32;20699;-54
2022/03/30 13:57:48;;;;;;;18.90;5.43;;;;;;;;;;4449616;32;20324;-54
2022/03/30 14:00:17;;;;;;;19.48;4.93;;;;;;;;;;4449732;32;20220;-55
2022/03/30 14:02:43;;;;;;;24.85;5.00;;;;;;;;;;4449255;32;20225;-54
2022/03/30 14:05:09;;;;;;;23.62;5.37;;;;;;;;;;4454313;32;20679;-54
2022/03/30 14:07:34;;;;;;;12.23;5.95;;;;;;;;;;4449610;32;20543;-54
2022/03/30 14:09:59;;;;;;;19.62;5.10;;;;;;;;;;4448704;32;20291;-53
2022/03/30 14:12:27;;;;;;;11.80;5.85;;;;;;;;;;4449479;32;20269;-54
2022/03/30 14:14:54;;;;;;;13.68;4.45;;;;;;;;;;4448985;32;20243;-54
2022/03/30 14:17:21;;;;;;;24.70;6.00;;;;;;;;;;4449746;32;20216;-52
2022/03/30 14:19:47;;;;;;;28.73;6.15;;;;;;;;;;4449688;32;20240;-54
2022/03/30 14:22:12;;;;;;;21.80;4.93;;;;;;;;;;4449158;32;20201;-53
2022/03/30 14:24:38;;;;;;;18.25;5.12;;;;;;;;;;4449681;32;20412;-53
2022/03/30 14:27:03;;;;;;;27.83;5.37;;;;;;;;;;4449458;32;20197;-54
2022/03/30 14:29:29;;;;;;;22.58;5.40;;;;;;;;;;4449162;32;20296;-53
2022/03/30 14:31:54;;;;;;;20.23;4.87;;;;;;;;;;4448501;32;20317;-53
2022/03/30 14:34:20;;;;;;;16.12;5.70;;;;;;;;;;4448476;32;20232;-53
2022/03/30 14:36:47;;;;;;;20.20;6.37;;;;;;;;;;4449115;32;20289;-54
2022/03/30 14:39:13;;;;;;;20.00;7.87;;;;;;;;;;4448707;32;20501;-54